sensor_id;sensor_type;location;lat;lon;timestamp;P1;durP1;ratioP1;P2;durP2;ratioP2
77854;SDS011;67046;50.088;14.336;2023-01-26T00:00:11;28.30;;;15.20;;
77854;SDS011;67046;50.088;14.336;2023-01-26T00:01:06;23.40;;;13.50;;
77854;SDS011;67046;50.088;14.336;2023-01-26T00:01:40;23.90;;;13.70;;
77854;SDS011;67046;50.088;14.336;2023-01-26T00:02:14;23.80;;;12.60;;
77854;SDS011;67046;50.088;14.336;2023-01-26T00:02:46;28.30;;;13.70;;
77854;SDS011;67046;50.088;14.336;2023-01-26T00:03:18;28.50;;;15.10;;
77854;SDS011;67046;50.088;14.336;2023-01-26T00:03:50;29.20;;;14.00;;
77854;SDS011;67046;50.088;14.336;2023-01-26T00:04:22;31.60;;;14.60;;
77854;SDS011;67046;50.088;14.336;2023-01-26T00:04:54;23.60;;;13.50;;
77854;SDS011;67046;50.088;14.336;2023-01-26T00:05:26;29.40;;;15.40;;
77854;SDS011;67046;50.088;14.336;2023-01-26T00:06:01;31.60;;;14.50;;
77854;SDS011;67046;50.088;14.336;2023-01-26T00:06:34;26.00;;;14.30;;
77854;SDS011;67046;50.088;14.336;2023-01-26T00:07:06;25.90;;;13.50;;
77854;SDS011;67046;50.088;14.336;2023-01-26T00:07:38;27.20;;;14.60;;
77854;SDS011;67046;50.088;14.336;2023-01-26T00:08:15;28.60;;;15.00;;
77854;SDS011;67046;50.088;14.336;2023-01-26T00:08:49;29.30;;;15.30;;
77854;SDS011;67046;50.088;14.336;2023-01-26T00:09:23;28.90;;;14.30;;
77854;SDS011;67046;50.088;14.336;2023-01-26T00:09:55;29.20;;;14.90;;
77854;SDS011;67046;50.088;14.336;2023-01-26T00:10:27;27.80;;;15.00;;
77854;SDS011;67046;50.088;14.336;2023-01-26T00:11:01;26.30;;;14.20;;
77854;SDS011;67046;50.088;14.336;2023-01-26T00:11:34;24.10;;;13.40;;
77854;SDS011;67046;50.088;14.336;2023-01-26T00:12:06;27.50;;;13.70;;
77854;SDS011;67046;50.088;14.336;2023-01-26T00:12:38;26.50;;;13.70;;
77854;SDS011;67046;50.088;14.336;2023-01-26T00:13:10;25.50;;;14.10;;
77854;SDS011;67046;50.088;14.336;2023-01-26T00:13:42;27.70;;;13.30;;
77854;SDS011;67046;50.088;14.336;2023-01-26T00:14:14;24.70;;;13.50;;
77854;SDS011;67046;50.088;14.336;2023-01-26T00:14:46;25.30;;;13.40;;
77854;SDS011;67046;50.088;14.336;2023-01-26T00:15:21;23.00;;;14.40;;
77854;SDS011;67046;50.088;14.336;2023-01-26T00:15:53;27.00;;;14.30;;
77854;SDS011;67046;50.088;14.336;2023-01-26T00:16:26;26.70;;;13.80;;
77854;SDS011;67046;50.088;14.336;2023-01-26T00:16:58;24.80;;;14.00;;
77854;SDS011;67046;50.088;14.336;2023-01-26T00:17:30;24.10;;;13.60;;
77854;SDS011;67046;50.088;14.336;2023-01-26T00:18:02;24.90;;;14.40;;
77854;SDS011;67046;50.088;14.336;2023-01-26T00:18:35;24.00;;;14.30;;
77854;SDS011;67046;50.088;14.336;2023-01-26T00:19:08;26.10;;;13.40;;
77854;SDS011;67046;50.088;14.336;2023-01-26T00:19:40;27.50;;;14.80;;
77854;SDS011;67046;50.088;14.336;2023-01-26T00:20:12;30.10;;;15.50;;
77854;SDS011;67046;50.088;14.336;2023-01-26T00:20:44;29.00;;;15.10;;
77854;SDS011;67046;50.088;14.336;2023-01-26T00:21:17;26.40;;;14.10;;
77854;SDS011;67046;50.088;14.336;2023-01-26T00:21:50;28.70;;;16.00;;
77854;SDS011;67046;50.088;14.336;2023-01-26T00:22:23;29.30;;;15.50;;
77854;SDS011;67046;50.088;14.336;2023-01-26T00:22:57;28.00;;;14.30;;
77854;SDS011;67046;50.088;14.336;2023-01-26T00:23:29;26.80;;;14.70;;
77854;SDS011;67046;50.088;14.336;2023-01-26T00:24:03;28.60;;;15.90;;
77854;SDS011;67046;50.088;14.336;2023-01-26T00:25:07;31.60;;;14.30;;
77854;SDS011;67046;50.088;14.336;2023-01-26T00:25:40;31.20;;;15.20;;
77854;SDS011;67046;50.088;14.336;2023-01-26T00:26:13;32.20;;;16.10;;
77854;SDS011;67046;50.088;14.336;2023-01-26T00:26:46;30.00;;;15.10;;
77854;SDS011;67046;50.088;14.336;2023-01-26T00:27:18;35.10;;;15.90;;
77854;SDS011;67046;50.088;14.336;2023-01-26T00:27:50;33.40;;;15.10;;
77854;SDS011;67046;50.088;14.336;2023-01-26T00:28:22;36.80;;;16.40;;
77854;SDS011;67046;50.088;14.336;2023-01-26T00:28:54;35.10;;;17.10;;
77854;SDS011;67046;50.088;14.336;2023-01-26T00:29:26;38.20;;;17.40;;
77854;SDS011;67046;50.088;14.336;2023-01-26T00:29:58;36.20;;;17.00;;
77854;SDS011;67046;50.088;14.336;2023-01-26T00:30:30;26.60;;;14.70;;
77854;SDS011;67046;50.088;14.336;2023-01-26T00:31:06;28.90;;;15.70;;
77854;SDS011;67046;50.088;14.336;2023-01-26T00:31:40;31.60;;;15.80;;
77854;SDS011;67046;50.088;14.336;2023-01-26T00:32:12;29.20;;;14.60;;
77854;SDS011;67046;50.088;14.336;2023-01-26T00:32:44;27.90;;;14.30;;
77854;SDS011;67046;50.088;14.336;2023-01-26T00:33:16;30.40;;;15.70;;
77854;SDS011;67046;50.088;14.336;2023-01-26T00:33:49;29.30;;;15.30;;
77854;SDS011;67046;50.088;14.336;2023-01-26T00:34:21;29.00;;;14.30;;
77854;SDS011;67046;50.088;14.336;2023-01-26T00:34:53;28.10;;;15.30;;
77854;SDS011;67046;50.088;14.336;2023-01-26T00:35:25;28.20;;;14.20;;
77854;SDS011;67046;50.088;14.336;2023-01-26T00:35:57;30.40;;;15.50;;
77854;SDS011;67046;50.088;14.336;2023-01-26T00:36:29;31.60;;;15.40;;
77854;SDS011;67046;50.088;14.336;2023-01-26T00:37:01;30.80;;;16.10;;
77854;SDS011;67046;50.088;14.336;2023-01-26T00:37:33;27.20;;;13.80;;
77854;SDS011;67046;50.088;14.336;2023-01-26T00:38:05;31.60;;;14.80;;
77854;SDS011;67046;50.088;14.336;2023-01-26T00:38:37;32.60;;;15.60;;
77854;SDS011;67046;50.088;14.336;2023-01-26T00:39:41;32.90;;;15.10;;
77854;SDS011;67046;50.088;14.336;2023-01-26T00:40:13;33.70;;;17.10;;
77854;SDS011;67046;50.088;14.336;2023-01-26T00:40:45;39.50;;;17.80;;
77854;SDS011;67046;50.088;14.336;2023-01-26T00:41:17;37.20;;;16.40;;
77854;SDS011;67046;50.088;14.336;2023-01-26T00:42:09;38.50;;;16.30;;
77854;SDS011;67046;50.088;14.336;2023-01-26T00:42:41;39.00;;;16.90;;
77854;SDS011;67046;50.088;14.336;2023-01-26T00:43:13;38.10;;;17.90;;
77854;SDS011;67046;50.088;14.336;2023-01-26T00:43:46;37.10;;;16.40;;
77854;SDS011;67046;50.088;14.336;2023-01-26T00:44:17;33.10;;;16.10;;
77854;SDS011;67046;50.088;14.336;2023-01-26T00:44:50;30.80;;;14.60;;
77854;SDS011;67046;50.088;14.336;2023-01-26T00:45:22;30.40;;;15.90;;
77854;SDS011;67046;50.088;14.336;2023-01-26T00:45:54;30.60;;;14.90;;
77854;SDS011;67046;50.088;14.336;2023-01-26T00:46:26;30.60;;;15.70;;
77854;SDS011;67046;50.088;14.336;2023-01-26T00:46:58;32.50;;;16.80;;
77854;SDS011;67046;50.088;14.336;2023-01-26T00:47:30;27.70;;;15.50;;
77854;SDS011;67046;50.088;14.336;2023-01-26T00:48:02;32.90;;;18.00;;
77854;SDS011;67046;50.088;14.336;2023-01-26T00:48:33;32.40;;;16.30;;
77854;SDS011;67046;50.088;14.336;2023-01-26T00:49:05;34.40;;;17.30;;
77854;SDS011;67046;50.088;14.336;2023-01-26T00:49:37;33.20;;;17.20;;
77854;SDS011;67046;50.088;14.336;2023-01-26T00:50:09;34.50;;;17.70;;
77854;SDS011;67046;50.088;14.336;2023-01-26T00:50:41;34.20;;;17.50;;
77854;SDS011;67046;50.088;14.336;2023-01-26T00:51:13;33.60;;;17.00;;
77854;SDS011;67046;50.088;14.336;2023-01-26T00:51:45;37.60;;;17.10;;
77854;SDS011;67046;50.088;14.336;2023-01-26T00:52:17;33.10;;;17.20;;
77854;SDS011;67046;50.088;14.336;2023-01-26T00:52:49;38.80;;;18.00;;
77854;SDS011;67046;50.088;14.336;2023-01-26T00:53:21;34.70;;;16.50;;
77854;SDS011;67046;50.088;14.336;2023-01-26T00:53:53;31.70;;;16.60;;
77854;SDS011;67046;50.088;14.336;2023-01-26T00:54:26;35.90;;;18.60;;
77854;SDS011;67046;50.088;14.336;2023-01-26T00:54:58;32.70;;;16.70;;
77854;SDS011;67046;50.088;14.336;2023-01-26T00:55:30;32.20;;;16.00;;
77854;SDS011;67046;50.088;14.336;2023-01-26T00:56:02;31.80;;;15.30;;
77854;SDS011;67046;50.088;14.336;2023-01-26T00:56:34;29.30;;;14.50;;
77854;SDS011;67046;50.088;14.336;2023-01-26T00:57:06;35.10;;;17.60;;
77854;SDS011;67046;50.088;14.336;2023-01-26T00:57:38;34.10;;;16.20;;
77854;SDS011;67046;50.088;14.336;2023-01-26T00:58:10;34.60;;;16.10;;
77854;SDS011;67046;50.088;14.336;2023-01-26T00:58:42;36.40;;;16.60;;
77854;SDS011;67046;50.088;14.336;2023-01-26T00:59:15;32.70;;;15.70;;
77854;SDS011;67046;50.088;14.336;2023-01-26T00:59:47;35.80;;;16.60;;
77854;SDS011;67046;50.088;14.336;2023-01-26T01:00:19;35.20;;;17.20;;
77854;SDS011;67046;50.088;14.336;2023-01-26T01:00:51;36.10;;;17.10;;
77854;SDS011;67046;50.088;14.336;2023-01-26T01:01:24;37.20;;;17.50;;
77854;SDS011;67046;50.088;14.336;2023-01-26T01:01:56;38.10;;;18.20;;
77854;SDS011;67046;50.088;14.336;2023-01-26T01:02:28;36.20;;;17.10;;
77854;SDS011;67046;50.088;14.336;2023-01-26T01:03:00;32.00;;;15.40;;
77854;SDS011;67046;50.088;14.336;2023-01-26T01:03:32;33.40;;;17.20;;
77854;SDS011;67046;50.088;14.336;2023-01-26T01:04:04;34.60;;;16.90;;
77854;SDS011;67046;50.088;14.336;2023-01-26T01:04:36;35.90;;;18.00;;
77854;SDS011;67046;50.088;14.336;2023-01-26T01:05:08;33.70;;;17.10;;
77854;SDS011;67046;50.088;14.336;2023-01-26T01:05:40;33.10;;;17.00;;
77854;SDS011;67046;50.088;14.336;2023-01-26T01:06:12;34.50;;;17.40;;
77854;SDS011;67046;50.088;14.336;2023-01-26T01:06:44;32.40;;;16.50;;
77854;SDS011;67046;50.088;14.336;2023-01-26T01:07:16;35.50;;;16.80;;
77854;SDS011;67046;50.088;14.336;2023-01-26T01:07:48;32.60;;;16.50;;
77854;SDS011;67046;50.088;14.336;2023-01-26T01:08:20;34.70;;;17.40;;
77854;SDS011;67046;50.088;14.336;2023-01-26T01:08:52;32.50;;;18.00;;
77854;SDS011;67046;50.088;14.336;2023-01-26T01:09:24;30.90;;;17.00;;
77854;SDS011;67046;50.088;14.336;2023-01-26T01:09:56;31.50;;;15.70;;
77854;SDS011;67046;50.088;14.336;2023-01-26T01:10:30;31.00;;;16.80;;
77854;SDS011;67046;50.088;14.336;2023-01-26T01:11:03;30.90;;;15.70;;
77854;SDS011;67046;50.088;14.336;2023-01-26T01:11:39;28.10;;;14.50;;
77854;SDS011;67046;50.088;14.336;2023-01-26T01:12:13;26.70;;;14.80;;
77854;SDS011;67046;50.088;14.336;2023-01-26T01:12:45;29.80;;;14.30;;
77854;SDS011;67046;50.088;14.336;2023-01-26T01:13:17;29.90;;;16.30;;
77854;SDS011;67046;50.088;14.336;2023-01-26T01:13:49;28.90;;;15.50;;
77854;SDS011;67046;50.088;14.336;2023-01-26T01:14:21;26.60;;;14.90;;
77854;SDS011;67046;50.088;14.336;2023-01-26T01:14:53;31.10;;;15.70;;
77854;SDS011;67046;50.088;14.336;2023-01-26T01:15:25;28.00;;;14.90;;
77854;SDS011;67046;50.088;14.336;2023-01-26T01:15:57;31.10;;;16.10;;
77854;SDS011;67046;50.088;14.336;2023-01-26T01:16:29;31.50;;;15.90;;
77854;SDS011;67046;50.088;14.336;2023-01-26T01:17:01;28.80;;;15.20;;
77854;SDS011;67046;50.088;14.336;2023-01-26T01:17:33;29.50;;;15.80;;
77854;SDS011;67046;50.088;14.336;2023-01-26T01:18:06;29.70;;;15.30;;
77854;SDS011;67046;50.088;14.336;2023-01-26T01:18:38;29.70;;;15.60;;
77854;SDS011;67046;50.088;14.336;2023-01-26T01:19:47;31.00;;;15.00;;
77854;SDS011;67046;50.088;14.336;2023-01-26T01:20:19;29.60;;;15.40;;
77854;SDS011;67046;50.088;14.336;2023-01-26T01:20:51;30.60;;;15.70;;
77854;SDS011;67046;50.088;14.336;2023-01-26T01:21:23;34.00;;;16.30;;
77854;SDS011;67046;50.088;14.336;2023-01-26T01:21:56;34.90;;;17.10;;
77854;SDS011;67046;50.088;14.336;2023-01-26T01:22:28;30.60;;;15.80;;
77854;SDS011;67046;50.088;14.336;2023-01-26T01:23:00;31.80;;;16.50;;
77854;SDS011;67046;50.088;14.336;2023-01-26T01:23:32;33.40;;;17.10;;
77854;SDS011;67046;50.088;14.336;2023-01-26T01:24:04;31.80;;;15.50;;
77854;SDS011;67046;50.088;14.336;2023-01-26T01:24:37;28.80;;;15.00;;
77854;SDS011;67046;50.088;14.336;2023-01-26T01:25:09;32.50;;;16.90;;
77854;SDS011;67046;50.088;14.336;2023-01-26T01:25:40;30.60;;;15.40;;
77854;SDS011;67046;50.088;14.336;2023-01-26T01:26:13;26.20;;;14.70;;
77854;SDS011;67046;50.088;14.336;2023-01-26T01:26:46;30.70;;;16.40;;
77854;SDS011;67046;50.088;14.336;2023-01-26T01:27:18;28.90;;;15.20;;
77854;SDS011;67046;50.088;14.336;2023-01-26T01:27:50;27.90;;;15.00;;
77854;SDS011;67046;50.088;14.336;2023-01-26T01:28:22;31.40;;;15.50;;
77854;SDS011;67046;50.088;14.336;2023-01-26T01:28:54;34.00;;;16.80;;
77854;SDS011;67046;50.088;14.336;2023-01-26T01:29:28;31.40;;;15.40;;
77854;SDS011;67046;50.088;14.336;2023-01-26T01:30:00;33.30;;;16.60;;
77854;SDS011;67046;50.088;14.336;2023-01-26T01:30:32;29.60;;;16.60;;
77854;SDS011;67046;50.088;14.336;2023-01-26T01:31:07;28.70;;;15.20;;
77854;SDS011;67046;50.088;14.336;2023-01-26T01:31:42;32.00;;;15.80;;
77854;SDS011;67046;50.088;14.336;2023-01-26T01:32:13;34.60;;;18.30;;
77854;SDS011;67046;50.088;14.336;2023-01-26T01:32:46;29.30;;;16.40;;
77854;SDS011;67046;50.088;14.336;2023-01-26T01:33:22;29.00;;;15.20;;
77854;SDS011;67046;50.088;14.336;2023-01-26T01:33:55;28.30;;;15.10;;
77854;SDS011;67046;50.088;14.336;2023-01-26T01:34:27;27.10;;;14.10;;
77854;SDS011;67046;50.088;14.336;2023-01-26T01:34:59;32.10;;;15.60;;
77854;SDS011;67046;50.088;14.336;2023-01-26T01:35:31;30.50;;;15.50;;
77854;SDS011;67046;50.088;14.336;2023-01-26T01:36:10;28.90;;;15.00;;
77854;SDS011;67046;50.088;14.336;2023-01-26T01:36:43;27.10;;;14.50;;
77854;SDS011;67046;50.088;14.336;2023-01-26T01:37:16;29.40;;;15.80;;
77854;SDS011;67046;50.088;14.336;2023-01-26T01:37:48;28.20;;;15.70;;
77854;SDS011;67046;50.088;14.336;2023-01-26T01:38:20;28.80;;;14.80;;
77854;SDS011;67046;50.088;14.336;2023-01-26T01:38:52;30.60;;;15.50;;
77854;SDS011;67046;50.088;14.336;2023-01-26T01:39:24;28.70;;;14.90;;
77854;SDS011;67046;50.088;14.336;2023-01-26T01:39:56;29.60;;;16.40;;
77854;SDS011;67046;50.088;14.336;2023-01-26T01:40:28;28.30;;;15.40;;
77854;SDS011;67046;50.088;14.336;2023-01-26T01:41:01;30.30;;;15.60;;
77854;SDS011;67046;50.088;14.336;2023-01-26T01:41:33;27.70;;;15.40;;
77854;SDS011;67046;50.088;14.336;2023-01-26T01:42:05;27.30;;;15.00;;
77854;SDS011;67046;50.088;14.336;2023-01-26T01:42:37;27.30;;;14.80;;
77854;SDS011;67046;50.088;14.336;2023-01-26T01:43:16;26.20;;;13.80;;
77854;SDS011;67046;50.088;14.336;2023-01-26T01:43:49;28.90;;;14.90;;
77854;SDS011;67046;50.088;14.336;2023-01-26T01:44:22;26.60;;;14.00;;
77854;SDS011;67046;50.088;14.336;2023-01-26T01:47:05;26.20;;;13.00;;
77854;SDS011;67046;50.088;14.336;2023-01-26T01:47:42;26.90;;;13.10;;
77854;SDS011;67046;50.088;14.336;2023-01-26T01:48:35;28.80;;;14.70;;
77854;SDS011;67046;50.088;14.336;2023-01-26T01:49:21;28.90;;;13.40;;
77854;SDS011;67046;50.088;14.336;2023-01-26T01:49:55;30.20;;;13.10;;
77854;SDS011;67046;50.088;14.336;2023-01-26T01:51:12;29.70;;;12.80;;
77854;SDS011;67046;50.088;14.336;2023-01-26T01:51:56;27.80;;;14.00;;
77854;SDS011;67046;50.088;14.336;2023-01-26T01:52:36;28.00;;;13.50;;
77854;SDS011;67046;50.088;14.336;2023-01-26T01:53:09;28.80;;;13.90;;
77854;SDS011;67046;50.088;14.336;2023-01-26T01:53:46;28.90;;;14.90;;
77854;SDS011;67046;50.088;14.336;2023-01-26T01:54:22;28.80;;;14.50;;
77854;SDS011;67046;50.088;14.336;2023-01-26T01:55:09;33.10;;;15.30;;
77854;SDS011;67046;50.088;14.336;2023-01-26T01:55:45;32.40;;;14.80;;
77854;SDS011;67046;50.088;14.336;2023-01-26T01:56:18;29.30;;;13.60;;
77854;SDS011;67046;50.088;14.336;2023-01-26T01:56:57;27.40;;;13.70;;
77854;SDS011;67046;50.088;14.336;2023-01-26T01:57:38;25.60;;;13.20;;
77854;SDS011;67046;50.088;14.336;2023-01-26T01:58:17;25.60;;;11.70;;
77854;SDS011;67046;50.088;14.336;2023-01-26T01:58:51;23.50;;;12.20;;
77854;SDS011;67046;50.088;14.336;2023-01-26T01:59:25;27.20;;;14.00;;
77854;SDS011;67046;50.088;14.336;2023-01-26T02:00:07;27.20;;;14.30;;
77854;SDS011;67046;50.088;14.336;2023-01-26T02:00:40;26.50;;;13.40;;
77854;SDS011;67046;50.088;14.336;2023-01-26T02:01:12;30.10;;;13.80;;
77854;SDS011;67046;50.088;14.336;2023-01-26T02:01:44;29.60;;;15.10;;
77854;SDS011;67046;50.088;14.336;2023-01-26T02:02:17;26.60;;;14.10;;
77854;SDS011;67046;50.088;14.336;2023-01-26T02:02:57;28.80;;;13.90;;
77854;SDS011;67046;50.088;14.336;2023-01-26T02:03:50;26.10;;;13.80;;
77854;SDS011;67046;50.088;14.336;2023-01-26T02:04:25;28.20;;;14.30;;
77854;SDS011;67046;50.088;14.336;2023-01-26T02:04:59;26.60;;;14.40;;
77854;SDS011;67046;50.088;14.336;2023-01-26T02:06:42;26.10;;;13.20;;
77854;SDS011;67046;50.088;14.336;2023-01-26T02:07:22;28.60;;;14.10;;
77854;SDS011;67046;50.088;14.336;2023-01-26T02:07:54;31.20;;;14.90;;
77854;SDS011;67046;50.088;14.336;2023-01-26T02:08:34;31.60;;;14.20;;
77854;SDS011;67046;50.088;14.336;2023-01-26T02:09:09;28.50;;;14.10;;
77854;SDS011;67046;50.088;14.336;2023-01-26T02:10:02;28.20;;;13.40;;
77854;SDS011;67046;50.088;14.336;2023-01-26T02:10:49;25.00;;;12.40;;
77854;SDS011;67046;50.088;14.336;2023-01-26T02:11:30;24.90;;;12.60;;
77854;SDS011;67046;50.088;14.336;2023-01-26T02:12:17;25.70;;;12.20;;
77854;SDS011;67046;50.088;14.336;2023-01-26T02:12:53;26.10;;;14.30;;
77854;SDS011;67046;50.088;14.336;2023-01-26T02:13:31;27.00;;;14.20;;
77854;SDS011;67046;50.088;14.336;2023-01-26T02:14:06;27.00;;;13.90;;
77854;SDS011;67046;50.088;14.336;2023-01-26T02:14:41;26.00;;;12.60;;
77854;SDS011;67046;50.088;14.336;2023-01-26T02:15:13;27.70;;;13.90;;
77854;SDS011;67046;50.088;14.336;2023-01-26T02:15:45;27.10;;;13.60;;
77854;SDS011;67046;50.088;14.336;2023-01-26T02:16:17;26.70;;;13.40;;
77854;SDS011;67046;50.088;14.336;2023-01-26T02:16:49;28.20;;;14.20;;
77854;SDS011;67046;50.088;14.336;2023-01-26T02:17:21;24.50;;;13.50;;
77854;SDS011;67046;50.088;14.336;2023-01-26T02:17:54;29.60;;;14.60;;
77854;SDS011;67046;50.088;14.336;2023-01-26T02:18:29;27.80;;;13.50;;
77854;SDS011;67046;50.088;14.336;2023-01-26T02:19:01;24.20;;;12.70;;
77854;SDS011;67046;50.088;14.336;2023-01-26T02:19:50;30.60;;;14.60;;
77854;SDS011;67046;50.088;14.336;2023-01-26T02:20:42;24.10;;;12.60;;
77854;SDS011;67046;50.088;14.336;2023-01-26T02:21:21;28.40;;;13.80;;
77854;SDS011;67046;50.088;14.336;2023-01-26T02:21:55;31.70;;;14.30;;
77854;SDS011;67046;50.088;14.336;2023-01-26T02:22:44;29.70;;;13.40;;
77854;SDS011;67046;50.088;14.336;2023-01-26T02:24:21;30.90;;;14.50;;
77854;SDS011;67046;50.088;14.336;2023-01-26T02:25:02;25.70;;;12.80;;
77854;SDS011;67046;50.088;14.336;2023-01-26T02:26:36;27.00;;;13.20;;
77854;SDS011;67046;50.088;14.336;2023-01-26T02:27:09;29.40;;;13.50;;
77854;SDS011;67046;50.088;14.336;2023-01-26T02:27:41;25.10;;;12.70;;
77854;SDS011;67046;50.088;14.336;2023-01-26T02:28:14;28.10;;;13.60;;
77854;SDS011;67046;50.088;14.336;2023-01-26T02:28:47;30.10;;;13.90;;
77854;SDS011;67046;50.088;14.336;2023-01-26T02:29:19;26.30;;;12.60;;
77854;SDS011;67046;50.088;14.336;2023-01-26T02:29:53;26.90;;;13.80;;
77854;SDS011;67046;50.088;14.336;2023-01-26T02:30:27;26.30;;;13.20;;
77854;SDS011;67046;50.088;14.336;2023-01-26T02:31:00;24.80;;;12.50;;
77854;SDS011;67046;50.088;14.336;2023-01-26T02:31:32;25.80;;;13.60;;
77854;SDS011;67046;50.088;14.336;2023-01-26T02:32:05;28.70;;;13.60;;
77854;SDS011;67046;50.088;14.336;2023-01-26T02:32:37;25.10;;;14.20;;
77854;SDS011;67046;50.088;14.336;2023-01-26T02:33:20;28.70;;;13.60;;
77854;SDS011;67046;50.088;14.336;2023-01-26T02:33:55;26.70;;;13.30;;
77854;SDS011;67046;50.088;14.336;2023-01-26T02:34:27;32.30;;;14.00;;
77854;SDS011;67046;50.088;14.336;2023-01-26T02:35:31;27.00;;;12.40;;
77854;SDS011;67046;50.088;14.336;2023-01-26T02:36:03;25.20;;;12.60;;
77854;SDS011;67046;50.088;14.336;2023-01-26T02:36:37;26.80;;;12.80;;
77854;SDS011;67046;50.088;14.336;2023-01-26T02:37:45;25.70;;;12.40;;
77854;SDS011;67046;50.088;14.336;2023-01-26T02:38:18;29.80;;;14.10;;
77854;SDS011;67046;50.088;14.336;2023-01-26T02:39:55;25.20;;;12.00;;
77854;SDS011;67046;50.088;14.336;2023-01-26T02:40:39;26.90;;;13.60;;
77854;SDS011;67046;50.088;14.336;2023-01-26T02:41:19;27.00;;;13.20;;
77854;SDS011;67046;50.088;14.336;2023-01-26T02:42:09;26.90;;;12.20;;
77854;SDS011;67046;50.088;14.336;2023-01-26T02:43:33;26.40;;;12.20;;
77854;SDS011;67046;50.088;14.336;2023-01-26T02:44:07;29.50;;;13.70;;
77854;SDS011;67046;50.088;14.336;2023-01-26T02:44:40;28.80;;;13.30;;
77854;SDS011;67046;50.088;14.336;2023-01-26T02:45:14;30.90;;;14.20;;
77854;SDS011;67046;50.088;14.336;2023-01-26T02:45:47;26.70;;;13.20;;
77854;SDS011;67046;50.088;14.336;2023-01-26T02:46:51;27.50;;;12.10;;
77854;SDS011;67046;50.088;14.336;2023-01-26T02:47:24;25.40;;;13.00;;
77854;SDS011;67046;50.088;14.336;2023-01-26T02:47:56;29.90;;;14.10;;
77854;SDS011;67046;50.088;14.336;2023-01-26T02:48:30;27.20;;;13.20;;
77854;SDS011;67046;50.088;14.336;2023-01-26T02:49:22;27.20;;;12.90;;
77854;SDS011;67046;50.088;14.336;2023-01-26T02:50:13;24.10;;;12.50;;
77854;SDS011;67046;50.088;14.336;2023-01-26T02:50:46;28.40;;;12.90;;
77854;SDS011;67046;50.088;14.336;2023-01-26T02:51:18;31.70;;;14.30;;
77854;SDS011;67046;50.088;14.336;2023-01-26T02:51:50;27.70;;;14.00;;
77854;SDS011;67046;50.088;14.336;2023-01-26T02:52:22;27.60;;;14.80;;
77854;SDS011;67046;50.088;14.336;2023-01-26T02:52:56;32.20;;;15.10;;
77854;SDS011;67046;50.088;14.336;2023-01-26T02:53:29;31.20;;;15.10;;
77854;SDS011;67046;50.088;14.336;2023-01-26T02:54:33;29.70;;;13.80;;
77854;SDS011;67046;50.088;14.336;2023-01-26T02:55:56;26.00;;;12.50;;
77854;SDS011;67046;50.088;14.336;2023-01-26T02:56:28;30.80;;;14.00;;
77854;SDS011;67046;50.088;14.336;2023-01-26T02:57:01;32.30;;;14.90;;
77854;SDS011;67046;50.088;14.336;2023-01-26T02:57:33;34.40;;;16.10;;
77854;SDS011;67046;50.088;14.336;2023-01-26T02:58:05;32.70;;;15.00;;
77854;SDS011;67046;50.088;14.336;2023-01-26T02:58:38;31.50;;;15.60;;
77854;SDS011;67046;50.088;14.336;2023-01-26T02:59:10;33.20;;;15.90;;
77854;SDS011;67046;50.088;14.336;2023-01-26T02:59:42;34.70;;;14.60;;
77854;SDS011;67046;50.088;14.336;2023-01-26T03:00:15;36.20;;;15.80;;
77854;SDS011;67046;50.088;14.336;2023-01-26T03:00:49;34.80;;;15.80;;
77854;SDS011;67046;50.088;14.336;2023-01-26T03:01:21;31.60;;;15.20;;
77854;SDS011;67046;50.088;14.336;2023-01-26T03:01:54;32.60;;;15.50;;
77854;SDS011;67046;50.088;14.336;2023-01-26T03:02:27;31.40;;;14.90;;
77854;SDS011;67046;50.088;14.336;2023-01-26T03:03:32;26.70;;;13.70;;
77854;SDS011;67046;50.088;14.336;2023-01-26T03:04:15;27.90;;;13.30;;
77854;SDS011;67046;50.088;14.336;2023-01-26T03:04:47;34.80;;;15.30;;
77854;SDS011;67046;50.088;14.336;2023-01-26T03:05:19;30.50;;;15.90;;
77854;SDS011;67046;50.088;14.336;2023-01-26T03:05:51;34.00;;;16.30;;
77854;SDS011;67046;50.088;14.336;2023-01-26T03:06:23;31.50;;;15.90;;
77854;SDS011;67046;50.088;14.336;2023-01-26T03:06:55;35.10;;;16.20;;
77854;SDS011;67046;50.088;14.336;2023-01-26T03:07:27;32.20;;;15.80;;
77854;SDS011;67046;50.088;14.336;2023-01-26T03:07:59;34.20;;;16.50;;
77854;SDS011;67046;50.088;14.336;2023-01-26T03:08:31;35.60;;;17.10;;
77854;SDS011;67046;50.088;14.336;2023-01-26T03:09:03;34.00;;;17.00;;
77854;SDS011;67046;50.088;14.336;2023-01-26T03:09:35;32.70;;;15.60;;
77854;SDS011;67046;50.088;14.336;2023-01-26T03:10:08;32.90;;;17.30;;
77854;SDS011;67046;50.088;14.336;2023-01-26T03:10:41;33.40;;;15.80;;
77854;SDS011;67046;50.088;14.336;2023-01-26T03:11:13;32.10;;;14.60;;
77854;SDS011;67046;50.088;14.336;2023-01-26T03:11:45;33.50;;;15.30;;
77854;SDS011;67046;50.088;14.336;2023-01-26T03:12:17;35.80;;;16.90;;
77854;SDS011;67046;50.088;14.336;2023-01-26T03:12:49;33.60;;;15.60;;
77854;SDS011;67046;50.088;14.336;2023-01-26T03:13:21;35.50;;;16.80;;
77854;SDS011;67046;50.088;14.336;2023-01-26T03:13:53;37.60;;;17.70;;
77854;SDS011;67046;50.088;14.336;2023-01-26T03:14:25;32.20;;;16.50;;
77854;SDS011;67046;50.088;14.336;2023-01-26T03:14:57;33.50;;;16.40;;
77854;SDS011;67046;50.088;14.336;2023-01-26T03:15:48;37.10;;;17.10;;
77854;SDS011;67046;50.088;14.336;2023-01-26T03:16:25;32.20;;;15.10;;
77854;SDS011;67046;50.088;14.336;2023-01-26T03:16:57;33.80;;;16.60;;
77854;SDS011;67046;50.088;14.336;2023-01-26T03:17:29;34.40;;;15.20;;
77854;SDS011;67046;50.088;14.336;2023-01-26T03:18:05;30.00;;;14.60;;
77854;SDS011;67046;50.088;14.336;2023-01-26T03:18:57;30.80;;;15.20;;
77854;SDS011;67046;50.088;14.336;2023-01-26T03:19:52;27.80;;;13.40;;
77854;SDS011;67046;50.088;14.336;2023-01-26T03:20:42;29.40;;;13.90;;
77854;SDS011;67046;50.088;14.336;2023-01-26T03:21:33;27.70;;;13.90;;
77854;SDS011;67046;50.088;14.336;2023-01-26T03:22:24;32.20;;;14.00;;
77854;SDS011;67046;50.088;14.336;2023-01-26T03:23:14;31.00;;;14.00;;
77854;SDS011;67046;50.088;14.336;2023-01-26T03:24:08;28.40;;;13.80;;
77854;SDS011;67046;50.088;14.336;2023-01-26T03:25:01;31.40;;;14.40;;
77854;SDS011;67046;50.088;14.336;2023-01-26T03:25:51;31.20;;;14.80;;
77854;SDS011;67046;50.088;14.336;2023-01-26T03:26:42;33.60;;;15.30;;
77854;SDS011;67046;50.088;14.336;2023-01-26T03:27:37;32.00;;;14.60;;
77854;SDS011;67046;50.088;14.336;2023-01-26T03:28:14;33.70;;;15.10;;
77854;SDS011;67046;50.088;14.336;2023-01-26T03:28:47;33.30;;;15.50;;
77854;SDS011;67046;50.088;14.336;2023-01-26T03:29:19;31.60;;;15.80;;
77854;SDS011;67046;50.088;14.336;2023-01-26T03:29:52;30.30;;;14.40;;
77854;SDS011;67046;50.088;14.336;2023-01-26T03:30:24;33.30;;;14.40;;
77854;SDS011;67046;50.088;14.336;2023-01-26T03:30:56;33.10;;;15.80;;
77854;SDS011;67046;50.088;14.336;2023-01-26T03:32:00;37.90;;;15.60;;
77854;SDS011;67046;50.088;14.336;2023-01-26T03:32:32;41.20;;;18.00;;